Comfort, TX (78013)

2:42 AM CDT on August 05, 2015 (GMT -0500)
Turkey Hollow | | Change Station
CLOSE
Current Station
Personal Weather Station
Location: Comfort, TX
Elevation: 1624 ft
Nearby Weather Stations

Elev 1624 ft 30.08 °N, 98.85 °W | Updated 13 minutes ago

Clear
Clear
77.2 °F
Feels Like 79 °F
N
5.0
Wind Variable Wind from SSE
Gusts 9.0 mph

Today
High -- | Low -- °F
--% Chance of Precip.
Yesterday
High -- | Low -- °F
Precip. -- in
6:56 AM 8:25 PM
Waning Gibbous, 70% visible
Pressure 30.03 in
Visibility 10.0 miles
Clouds Mostly Cloudy 1600 ft
Heat Index 79 °F
Dew Point 72 °F
Humidity 85%
Rainfall 0.00 in
Snow Depth Not available.
UV 0 out of 12
Pollen 6.20 out of 12
Air Quality Not available.
Flu Activity Not available.
METAR KERV 050735Z AUTO 16008G15KT 10SM BKN016 26/23 A3003 RMK AO2 T02550230

More Conditions Fewer Conditions

Pressure 30.03 in
Visibility 10.0 miles
Clouds Mostly Cloudy 1600 ft
Heat Index 79 °F
Dew Point 72 °F
Humidity 85%
Rainfall 0.00 in
Snow Depth Not available.
UV 0 out of 12
Pollen 6.20 out of 12
Air Quality Not available.
Flu Activity Not available.
METAR KERV 050735Z AUTO 16008G15KT 10SM BKN016 26/23 A3003 RMK AO2 T02550230

More Conditions Fewer Conditions

10-Day Weather Forecast

×

Almanac

Astronomy

Aug. 05, 2015 Rise Set
Actual Time
Civil Twilight
Nautical Twilight
Astronomical Twilight
Moon
Length of Visible Light
Length of Day
Tomorrow will be .
, % of the Moon is Illuminated

Today's Extremes

State Highs State Lows

Community

WunderPhotos

Upload Photos

1,844,105 photos uploaded!

WunderBlogs® & News

Nearby

Air Quality

  Air Quality AQ Index Pollutant
Not available.

Snow Depth

Station Depth Elevation

Earthquake Activity

City Distance Mag. Time & Date
Minimum magnitude displayed is 2.5.

Coastal Water Temperatures

Place Temperature

Stations

Nearby Weather Stations

Station Location Temp. Windchill Dew Point Humidity Wind Precip. Elev Updated Type